Time;durP1;ratioP1;P1;durP2;ratioP2;P2;SDS_P1;SDS_P2;PMS_P1;PMS_P2;Temp;Humidity;BMP_temperature;BMP_pressure;BME280_temperature;BME280_humidity;BME280_pressure;Samples;Min_cycle;Max_cycle;Signal;HPM_P1;HPM_P2
2023/10/23 00:02:03;;;;;;;110.37;101.03;;;12.30;99.90;;;;;;5034840;28;20596;-77
2023/10/23 00:04:29;;;;;;;115.47;106.13;;;12.20;99.90;;;;;;5034654;28;20173;-77
2023/10/23 00:06:54;;;;;;;122.60;112.90;;;12.20;99.90;;;;;;5034664;28;20458;-77
2023/10/23 00:09:20;;;;;;;107.70;98.60;;;12.20;99.90;;;;;;5034560;28;20707;-77
2023/10/23 00:11:46;;;;;;;123.00;113.20;;;12.10;99.90;;;;;;5034683;28;20173;-77
2023/10/23 00:14:12;;;;;;;117.57;107.97;;;12.00;99.90;;;;;;5034567;28;20667;-77
2023/10/23 00:16:37;;;;;;;116.30;106.90;;;11.90;99.90;;;;;;5016776;28;20645;-78
2023/10/23 00:19:03;;;;;;;113.27;103.77;;;11.90;99.90;;;;;;5034436;28;20204;-78
2023/10/23 00:21:28;;;;;;;114.40;105.10;;;12.00;99.90;;;;;;5034450;28;20193;-78
2023/10/23 00:23:54;;;;;;;100.80;91.80;;;12.00;99.90;;;;;;5034314;28;20190;-78
2023/10/23 00:26:20;;;;;;;98.43;89.73;;;12.00;99.90;;;;;;5034028;28;20170;-78
2023/10/23 00:28:45;;;;;;;111.00;101.80;;;11.90;99.90;;;;;;5034407;28;20172;-77
2023/10/23 00:31:11;;;;;;;110.67;101.27;;;11.80;99.90;;;;;;5034487;28;20682;-77
2023/10/23 00:33:37;;;;;;;106.07;96.80;;;11.80;99.90;;;;;;5034136;28;20558;-78
2023/10/23 00:36:02;;;;;;;104.40;95.37;;;11.70;99.90;;;;;;5034237;28;20535;-78
2023/10/23 00:38:28;;;;;;;117.43;107.53;;;11.60;99.90;;;;;;5034417;28;20235;-78
2023/10/23 00:40:54;;;;;;;103.60;94.63;;;11.60;99.90;;;;;;5034163;28;20632;-77
2023/10/23 00:43:24;;;;;;;116.65;106.82;;;11.60;99.90;;;;;;5034158;28;20470;-77
2023/10/23 00:46:00;;;;;;;105.07;95.82;;;11.60;99.90;;;;;;5033911;28;20509;-77
2023/10/23 00:48:27;;;;;;;94.75;86.15;;;11.50;99.90;;;;;;5034135;28;20150;-78
2023/10/23 00:50:57;;;;;;;86.18;77.88;;;11.50;99.90;;;;;;5034240;28;20268;-78
2023/10/23 00:53:25;;;;;;;86.93;78.50;;;11.50;99.90;;;;;;5015991;28;20602;-77
2023/10/23 00:55:53;;;;;;;85.43;77.07;;;11.40;99.90;;;;;;5034075;28;20177;-78
2023/10/23 00:58:20;;;;;;;91.68;82.78;;;11.30;99.90;;;;;;5033927;28;20219;-77
2023/10/23 01:00:48;;;;;;;86.80;78.38;;;11.20;99.90;;;;;;5033615;28;20182;-78
2023/10/23 01:03:13;;;;;;;96.18;87.00;;;11.20;99.90;;;;;;5033629;28;20201;-78
2023/10/23 01:05:39;;;;;;;90.00;81.40;;;11.10;99.90;;;;;;5033680;28;20740;-77
2023/10/23 01:08:06;;;;;;;84.73;76.50;;;11.10;99.90;;;;;;5033806;28;20198;-77
2023/10/23 01:10:35;;;;;;;89.65;81.20;;;11.00;99.90;;;;;;5015715;28;20969;-77
2023/10/23 01:13:08;;;;;;;88.60;80.20;;;11.00;99.90;;;;;;5033736;28;20681;-77
2023/10/23 01:15:34;;;;;;;87.28;78.90;;;11.00;99.90;;;;;;5034044;28;20150;-77
2023/10/23 01:18:00;;;;;;;100.82;91.53;;;10.90;99.90;;;;;;5033504;28;20765;-77
2023/10/23 01:20:28;;;;;;;83.27;74.90;;;10.90;99.90;;;;;;5033364;28;20249;-78
2023/10/23 01:23:03;;;;;;;84.32;75.63;;;10.80;99.90;;;;;;5033303;28;20432;-77
2023/10/23 01:25:29;;;;;;;82.18;74.10;;;10.80;99.90;;;;;;5033683;28;20176;-77
2023/10/23 01:27:55;;;;;;;84.40;76.18;;;10.80;99.90;;;;;;5033302;28;20596;-77
2023/10/23 01:30:21;;;;;;;84.72;76.50;;;10.70;99.90;;;;;;5015461;28;20279;-77
2023/10/23 01:32:47;;;;;;;91.53;82.63;;;10.70;99.90;;;;;;5033157;28;20277;-78
2023/10/23 01:35:13;;;;;;;84.20;75.80;;;10.60;99.90;;;;;;5033285;28;20463;-77
2023/10/23 01:37:41;;;;;;;84.05;75.82;;;10.70;99.90;;;;;;5032698;28;20412;-77
2023/10/23 01:40:07;;;;;;;77.35;69.35;;;10.60;99.90;;;;;;5015369;28;20170;-77
2023/10/23 01:42:33;;;;;;;76.95;69.00;;;10.60;99.90;;;;;;5033393;28;20550;-77
2023/10/23 01:44:59;;;;;;;76.50;68.60;;;10.60;99.90;;;;;;5033237;28;20173;-77
2023/10/23 01:47:25;;;;;;;84.17;76.03;;;10.60;99.90;;;;;;5033503;28;20166;-77
2023/10/23 01:49:51;;;;;;;86.95;78.50;;;10.50;99.90;;;;;;5033498;28;20535;-77
2023/10/23 01:52:17;;;;;;;83.57;75.43;;;10.50;99.90;;;;;;5032973;28;20328;-77
2023/10/23 01:54:43;;;;;;;93.63;84.60;;;10.50;99.90;;;;;;5033204;28;20417;-77
2023/10/23 01:57:12;;;;;;;84.47;76.17;;;10.40;99.90;;;;;;5033687;28;20162;-77
2023/10/23 01:59:38;;;;;;;77.47;69.57;;;10.40;99.90;;;;;;5032965;28;20522;-77
2023/10/23 02:02:04;;;;;;;77.38;69.35;;;10.40;99.90;;;;;;5032941;28;20162;-77
2023/10/23 02:04:30;;;;;;;82.87;74.73;;;10.40;99.90;;;;;;5032904;28;20532;-77
2023/10/23 02:06:56;;;;;;;91.83;82.93;;;10.30;99.90;;;;;;5033098;28;20412;-77
2023/10/23 02:09:22;;;;;;;71.97;64.27;;;10.30;99.90;;;;;;5032882;28;20412;-77
2023/10/23 02:11:47;;;;;;;92.57;83.60;;;10.30;99.90;;;;;;5033293;28;20519;-77
2023/10/23 02:14:13;;;;;;;72.43;64.57;;;10.20;99.90;;;;;;5032733;28;20419;-77
2023/10/23 02:16:39;;;;;;;103.37;94.13;;;10.30;99.90;;;;;;5032962;28;20158;-77
2023/10/23 02:19:05;;;;;;;86.80;78.13;;;10.20;99.90;;;;;;5032787;28;20681;-77
2023/10/23 02:21:30;;;;;;;82.73;74.63;;;10.20;99.90;;;;;;5033060;28;20197;-77
2023/10/23 02:23:59;;;;;;;84.67;76.33;;;10.20;99.90;;;;;;5032644;28;20813;-77
2023/10/23 02:26:25;;;;;;;88.60;80.13;;;10.20;99.90;;;;;;5032727;28;20166;-77
2023/10/23 02:28:51;;;;;;;93.70;84.33;;;10.20;99.90;;;;;;5032727;28;20216;-77
2023/10/23 02:31:17;;;;;;;102.03;92.20;;;10.20;99.90;;;;;;5032610;28;20459;-78
2023/10/23 02:33:45;;;;;;;87.57;79.28;;;10.20;99.90;;;;;;5032826;28;20213;-78
2023/10/23 02:36:11;;;;;;;102.35;92.78;;;10.10;99.90;;;;;;5032769;28;20245;-77
2023/10/23 02:38:37;;;;;;;81.37;73.33;;;10.10;99.90;;;;;;5032978;28;20619;-77
2023/10/23 02:41:03;;;;;;;89.17;80.17;;;10.10;99.90;;;;;;5032625;28;20491;-77
2023/10/23 02:43:28;;;;;;;85.20;76.97;;;10.10;99.90;;;;;;5032523;28;20189;-77
2023/10/23 02:45:54;;;;;;;91.47;83.00;;;10.00;99.90;;;;;;5032585;28;20181;-77
2023/10/23 02:48:20;;;;;;;94.63;85.57;;;10.10;99.90;;;;;;5032591;28;20170;-77
2023/10/23 02:50:53;;;;;;;92.27;83.17;;;10.00;99.90;;;;;;5035787;28;20204;-77
2023/10/23 02:53:19;;;;;;;93.70;84.75;;;10.00;99.90;;;;;;5035794;28;20448;-77
2023/10/23 02:55:44;;;;;;;92.43;83.80;;;10.10;99.90;;;;;;5036294;28;20713;-77
2023/10/23 02:58:10;;;;;;;100.73;90.63;;;10.00;99.90;;;;;;5036042;28;20596;-77
2023/10/23 03:00:35;;;;;;;98.10;88.97;;;10.00;99.90;;;;;;5035937;28;20184;-77
2023/10/23 03:03:01;;;;;;;96.30;87.13;;;10.00;99.90;;;;;;5036223;28;20188;-78
2023/10/23 03:05:27;;;;;;;90.83;81.80;;;9.90;99.90;;;;;;5036113;28;20208;-78
2023/10/23 03:07:53;;;;;;;107.83;98.40;;;10.00;99.90;;;;;;5036002;28;20169;-77
2023/10/23 03:10:19;;;;;;;79.97;71.93;;;10.00;99.90;;;;;;5035737;28;20194;-77
2023/10/23 03:12:45;;;;;;;88.05;79.78;;;9.90;99.90;;;;;;5035624;28;20190;-77
2023/10/23 03:15:11;;;;;;;94.33;85.67;;;9.80;99.90;;;;;;5035688;28;20532;-77
2023/10/23 03:17:37;;;;;;;79.93;71.82;;;9.80;99.90;;;;;;5035507;28;20232;-77
2023/10/23 03:20:04;;;;;;;89.10;80.80;;;9.80;99.90;;;;;;5035562;28;20166;-77
2023/10/23 03:22:30;;;;;;;87.72;79.38;;;9.90;99.90;;;;;;5035932;28;20559;-77
2023/10/23 03:24:55;;;;;;;81.87;73.90;;;9.90;99.90;;;;;;5035459;28;20169;-77
2023/10/23 03:27:21;;;;;;;82.53;74.43;;;9.80;99.90;;;;;;5035437;28;20241;-77
2023/10/23 03:29:47;;;;;;;85.10;76.90;;;9.70;99.90;;;;;;5035377;28;20260;-77
2023/10/23 03:32:13;;;;;;;77.50;69.40;;;9.70;99.90;;;;;;5035199;28;20198;-77
2023/10/23 03:34:39;;;;;;;82.63;74.47;;;9.60;99.90;;;;;;5035603;28;20162;-77
2023/10/23 03:37:05;;;;;;;88.27;79.40;;;9.60;99.90;;;;;;5035239;28;20643;-77
2023/10/23 03:39:30;;;;;;;82.07;73.93;;;9.50;99.90;;;;;;5035309;28;20158;-77
2023/10/23 03:41:56;;;;;;;79.67;71.73;;;9.50;99.90;;;;;;5035227;28;20666;-77
2023/10/23 03:44:22;;;;;;;99.53;90.63;;;9.50;99.90;;;;;;5035098;28;20247;-77
2023/10/23 03:46:47;;;;;;;91.53;82.17;;;9.50;99.90;;;;;;5017276;28;20166;-77
2023/10/23 03:49:13;;;;;;;76.60;68.33;;;9.50;99.90;;;;;;5035083;28;20162;-77
2023/10/23 03:51:38;;;;;;;93.73;84.30;;;9.50;99.90;;;;;;5035021;28;20194;-77
2023/10/23 03:54:04;;;;;;;103.73;93.87;;;9.50;99.90;;;;;;5035039;28;20182;-78
2023/10/23 03:56:30;;;;;;;80.63;72.60;;;9.50;99.90;;;;;;5035131;28;20189;-77
2023/10/23 03:58:55;;;;;;;88.80;79.87;;;9.50;99.90;;;;;;5017158;28;20405;-77
2023/10/23 04:01:21;;;;;;;78.87;70.83;;;9.40;99.90;;;;;;5034043;28;20174;-77
2023/10/23 04:03:47;;;;;;;82.53;74.37;;;9.50;99.90;;;;;;5034708;28;20689;-77
2023/10/23 04:06:13;;;;;;;72.73;63.17;;;9.40;99.90;;;;;;5034950;28;20175;-77
2023/10/23 04:08:41;;;;;;;77.67;69.53;;;9.30;99.90;;;;;;5034682;28;20181;-77
2023/10/23 04:11:08;;;;;;;77.97;70.05;;;9.30;99.90;;;;;;5034707;28;20268;-78
2023/10/23 04:13:36;;;;;;;83.88;75.35;;;9.30;99.90;;;;;;5034631;28;20189;-77
2023/10/23 04:16:02;;;;;;;89.95;81.20;;;9.20;99.90;;;;;;5034543;28;20158;-78
2023/10/23 04:18:28;;;;;;;74.78;66.18;;;9.20;99.90;;;;;;5034463;28;20248;-77
2023/10/23 04:21:04;;;;;;;76.83;68.73;;;9.20;99.90;;;;;;5034432;28;20245;-78
2023/10/23 04:23:31;;;;;;;80.70;69.45;;;9.30;99.90;;;;;;5034417;28;20196;-77
2023/10/23 04:25:56;;;;;;;81.88;73.25;;;9.20;99.90;;;;;;5016542;28;20170;-77
2023/10/23 04:28:22;;;;;;;80.77;72.87;;;9.20;99.90;;;;;;5034403;28;20173;-77
2023/10/23 04:30:48;;;;;;;83.68;74.93;;;9.20;99.90;;;;;;5034453;28;20720;-77
2023/10/23 04:33:21;;;;;;;71.30;61.90;;;9.20;99.90;;;;;;5034431;28;20189;-77
2023/10/23 04:35:50;;;;;;;69.05;59.08;;;9.20;99.90;;;;;;5034392;28;20485;-77
2023/10/23 04:38:15;;;;;;;73.80;61.53;;;9.30;99.90;;;;;;5034352;28;20166;-78
2023/10/23 04:40:42;;;;;;;71.67;64.00;;;9.30;99.90;;;;;;5034049;28;20161;-77
2023/10/23 04:43:08;;;;;;;83.78;75.10;;;9.30;99.90;;;;;;5033934;28;20590;-77
2023/10/23 04:45:37;;;;;;;73.37;62.13;;;9.30;99.90;;;;;;5034053;28;20208;-78
2023/10/23 04:48:03;;;;;;;72.72;63.92;;;9.30;99.90;;;;;;5033918;28;20261;-77
2023/10/23 04:50:33;;;;;;;86.03;77.07;;;9.30;99.90;;;;;;5034391;28;20543;-77
2023/10/23 04:53:02;;;;;;;79.28;71.03;;;9.20;99.90;;;;;;5033730;28;20205;-77
2023/10/23 04:55:38;;;;;;;94.15;84.80;;;9.20;99.90;;;;;;5033783;28;20170;-77
2023/10/23 04:58:04;;;;;;;77.55;69.55;;;9.20;99.90;;;;;;5033617;28;20572;-77
2023/10/23 05:00:33;;;;;;;78.20;70.15;;;9.10;99.90;;;;;;5033680;28;20216;-77
2023/10/23 05:02:59;;;;;;;75.70;67.75;;;9.10;99.90;;;;;;5033717;28;20206;-77
2023/10/23 05:05:24;;;;;;;77.70;69.77;;;9.10;99.90;;;;;;5033714;28;20165;-77
2023/10/23 05:07:50;;;;;;;72.67;64.83;;;9.10;99.90;;;;;;5033627;28;20169;-77
2023/10/23 05:10:16;;;;;;;68.90;58.23;;;9.10;99.90;;;;;;5033479;28;20269;-77
2023/10/23 05:12:42;;;;;;;75.10;67.33;;;9.10;99.90;;;;;;5033516;28;20185;-77
2023/10/23 05:15:08;;;;;;;91.07;82.20;;;9.20;99.90;;;;;;5033538;28;20396;-77
2023/10/23 05:17:34;;;;;;;84.97;76.37;;;9.20;99.90;;;;;;5033841;28;20401;-77
2023/10/23 05:19:59;;;;;;;74.68;64.65;;;9.10;99.90;;;;;;5033323;28;20401;-77
2023/10/23 05:22:25;;;;;;;69.17;59.53;;;9.10;99.90;;;;;;5033100;28;20331;-77
2023/10/23 05:24:51;;;;;;;79.63;71.57;;;9.10;99.90;;;;;;5033256;28;20614;-77
2023/10/23 05:27:17;;;;;;;69.97;61.63;;;9.10;99.90;;;;;;5033328;28;20634;-77
2023/10/23 05:29:43;;;;;;;91.07;82.05;;;9.00;99.90;;;;;;5033280;28;20176;-77
2023/10/23 05:32:09;;;;;;;82.73;74.10;;;9.10;99.90;;;;;;5033313;28;20253;-77
2023/10/23 05:34:35;;;;;;;67.83;57.43;;;9.10;99.90;;;;;;5033110;28;20387;-77
2023/10/23 05:37:01;;;;;;;70.30;61.27;;;9.00;99.90;;;;;;5015360;28;20170;-78
2023/10/23 05:39:27;;;;;;;68.60;59.53;;;9.00;99.90;;;;;;5033039;28;20901;-77
2023/10/23 05:41:53;;;;;;;73.10;65.38;;;9.00;99.90;;;;;;5033166;28;20937;-77
2023/10/23 05:44:19;;;;;;;76.38;68.20;;;9.00;99.90;;;;;;5015140;28;20285;-77
2023/10/23 05:46:44;;;;;;;84.77;76.00;;;9.00;99.90;;;;;;5032964;28;20598;-77
2023/10/23 05:49:10;;;;;;;71.63;64.00;;;9.00;99.90;;;;;;5033010;28;20189;-77
2023/10/23 05:51:35;;;;;;;71.00;62.10;;;9.00;99.90;;;;;;5032662;28;20186;-77
2023/10/23 05:54:02;;;;;;;96.80;87.23;;;9.00;99.90;;;;;;5033084;28;20185;-77
2023/10/23 05:56:28;;;;;;;82.35;74.22;;;9.10;99.90;;;;;;5032851;28;20248;-77
2023/10/23 05:58:54;;;;;;;94.75;85.55;;;9.10;99.90;;;;;;5032811;28;20650;-77
2023/10/23 06:01:20;;;;;;;86.63;78.00;;;9.10;99.90;;;;;;5032838;28;20170;-77
2023/10/23 06:03:46;;;;;;;83.53;74.80;;;9.10;99.90;;;;;;5032697;28;20182;-77
2023/10/23 06:06:14;;;;;;;77.00;68.73;;;9.20;99.90;;;;;;5032876;28;20404;-77
2023/10/23 06:08:40;;;;;;;90.60;81.65;;;9.20;99.90;;;;;;5032698;28;20244;-77
2023/10/23 06:11:13;;;;;;;84.87;76.53;;;9.20;99.90;;;;;;5032928;28;20276;-77
2023/10/23 06:13:39;;;;;;;100.97;91.53;;;9.20;99.90;;;;;;5032707;28;20467;-77
2023/10/23 06:16:05;;;;;;;74.15;65.10;;;9.20;99.90;;;;;;5032736;28;20185;-77
2023/10/23 06:18:35;;;;;;;105.03;95.50;;;9.20;99.90;;;;;;5032693;28;20162;-77
2023/10/23 06:21:05;;;;;;;98.88;88.88;;;9.20;99.90;;;;;;5032876;28;20292;-77
2023/10/23 06:23:37;;;;;;;95.63;86.35;;;9.10;99.90;;;;;;5032932;28;20551;-77
2023/10/23 06:26:03;;;;;;;93.30;84.25;;;9.10;99.90;;;;;;5036809;28;20511;-77
2023/10/23 06:28:29;;;;;;;96.40;87.22;;;9.10;99.90;;;;;;5036379;28;20263;-77
2023/10/23 06:30:55;;;;;;;80.17;71.47;;;9.10;99.90;;;;;;5036556;28;20686;-77
2023/10/23 06:33:21;;;;;;;87.47;78.77;;;9.10;99.90;;;;;;5036266;28;20424;-77
2023/10/23 06:35:57;;;;;;;101.00;91.47;;;9.10;99.90;;;;;;5036565;28;20643;-77
2023/10/23 06:38:22;;;;;;;84.93;76.13;;;9.10;99.90;;;;;;5036276;28;20408;-77
2023/10/23 06:40:48;;;;;;;85.47;76.60;;;9.20;99.90;;;;;;5036223;28;20198;-77
2023/10/23 06:43:14;;;;;;;82.27;73.77;;;9.20;99.90;;;;;;5036121;28;20235;-77
2023/10/23 06:45:39;;;;;;;77.07;69.17;;;9.20;99.90;;;;;;5036096;28;20172;-77
2023/10/23 06:48:05;;;;;;;81.93;72.70;;;9.20;99.90;;;;;;5036060;28;20253;-77
2023/10/23 06:50:31;;;;;;;88.80;80.23;;;9.20;99.90;;;;;;5018180;28;20566;-77
2023/10/23 06:52:56;;;;;;;88.17;79.77;;;9.20;99.90;;;;;;5035765;28;20717;-77
2023/10/23 06:55:24;;;;;;;90.53;81.93;;;9.20;99.90;;;;;;5035961;28;20643;-77
2023/10/23 06:57:50;;;;;;;105.75;96.05;;;9.20;99.90;;;;;;5035884;28;20170;-77
2023/10/23 07:00:16;;;;;;;85.63;77.00;;;9.20;99.90;;;;;;5036093;28;20170;-77
2023/10/23 07:02:42;;;;;;;93.23;84.47;;;9.30;99.90;;;;;;5035730;28;20424;-77
2023/10/23 07:05:07;;;;;;;83.17;74.67;;;9.30;99.90;;;;;;5035751;28;20487;-77
2023/10/23 07:07:34;;;;;;;94.00;84.30;;;9.30;99.90;;;;;;5035687;28;20236;-77
2023/10/23 07:09:59;;;;;;;100.78;91.65;;;9.40;99.90;;;;;;5035573;28;20186;-77
2023/10/23 07:12:26;;;;;;;97.67;88.73;;;9.50;99.90;;;;;;5035624;28;20189;-77
2023/10/23 07:14:51;;;;;;;102.57;93.53;;;9.50;99.90;;;;;;5035589;28;20177;-77
2023/10/23 07:17:17;;;;;;;92.97;84.30;;;9.50;99.90;;;;;;5017759;28;20539;-77
2023/10/23 07:19:43;;;;;;;104.57;95.43;;;9.50;99.90;;;;;;5035487;28;20162;-77
2023/10/23 07:22:09;;;;;;;92.77;84.07;;;9.60;99.90;;;;;;5035930;28;20165;-77
2023/10/23 07:24:34;;;;;;;92.43;83.07;;;9.70;99.90;;;;;;5035684;28;20170;-77
2023/10/23 07:27:00;;;;;;;99.00;90.07;;;9.70;99.90;;;;;;5035641;28;20542;-77
2023/10/23 07:29:26;;;;;;;97.13;88.13;;;9.70;99.90;;;;;;5035377;28;20658;-77
2023/10/23 07:31:51;;;;;;;93.30;84.50;;;9.80;99.90;;;;;;5035451;28;20720;-77
2023/10/23 07:34:17;;;;;;;112.47;102.47;;;9.70;99.90;;;;;;5035444;28;20586;-77
2023/10/23 07:36:43;;;;;;;93.83;84.70;;;9.70;99.90;;;;;;5034247;28;20594;-77
2023/10/23 07:39:09;;;;;;;91.40;82.25;;;9.80;99.90;;;;;;5035162;28;20527;-77
2023/10/23 07:41:34;;;;;;;123.07;112.60;;;9.80;99.90;;;;;;5035484;28;20161;-77
2023/10/23 07:44:00;;;;;;;97.77;88.37;;;9.80;99.90;;;;;;5035015;28;20189;-77
2023/10/23 07:46:26;;;;;;;99.40;90.30;;;9.90;99.90;;;;;;5035074;28;20165;-77
2023/10/23 07:48:51;;;;;;;121.47;111.57;;;9.90;99.90;;;;;;5034982;28;20165;-77
2023/10/23 07:51:17;;;;;;;104.40;94.17;;;10.10;99.90;;;;;;5034898;28;20200;-77
2023/10/23 07:53:43;;;;;;;124.80;114.37;;;10.10;99.90;;;;;;5034667;28;20221;-77
2023/10/23 07:56:11;;;;;;;122.27;110.77;;;10.20;99.90;;;;;;5035346;28;20961;-77
2023/10/23 07:58:37;;;;;;;116.78;106.20;;;10.20;99.90;;;;;;5016964;28;20443;-77
2023/10/23 08:01:07;;;;;;;105.87;95.33;;;10.30;99.90;;;;;;5034734;28;20162;-77
2023/10/23 08:03:34;;;;;;;114.60;104.00;;;10.20;99.90;;;;;;5034552;28;20190;-77
2023/10/23 08:06:03;;;;;;;116.65;106.13;;;10.20;99.90;;;;;;5034648;28;20217;-77
2023/10/23 08:08:30;;;;;;;115.28;104.45;;;10.20;99.90;;;;;;5034592;28;20204;-77
2023/10/23 08:10:55;;;;;;;134.13;121.53;;;10.30;99.90;;;;;;5034716;28;20571;-77
2023/10/23 08:13:21;;;;;;;117.23;105.93;;;10.20;99.90;;;;;;5034405;28;20182;-77
2023/10/23 08:15:46;;;;;;;112.93;102.13;;;10.30;99.90;;;;;;5034681;28;20158;-77
2023/10/23 08:18:12;;;;;;;117.30;106.70;;;10.30;99.90;;;;;;5034379;28;20166;-77
2023/10/23 08:20:38;;;;;;;125.17;114.43;;;10.40;99.90;;;;;;5034368;28;20170;-77
2023/10/23 08:23:03;;;;;;;111.67;101.13;;;10.40;99.90;;;;;;5034239;28;20185;-77
2023/10/23 08:25:32;;;;;;;125.97;115.07;;;10.40;99.90;;;;;;5034259;28;20169;-77
2023/10/23 08:27:58;;;;;;;117.15;106.60;;;10.30;99.90;;;;;;5034141;28;20175;-77
2023/10/23 08:30:23;;;;;;;127.23;115.93;;;10.40;99.90;;;;;;5034569;28;20193;-77
2023/10/23 08:32:49;;;;;;;118.87;108.37;;;10.30;99.90;;;;;;5034425;28;20193;-77
2023/10/23 08:35:15;;;;;;;122.53;111.70;;;10.30;99.90;;;;;;5034319;28;20166;-77
2023/10/23 08:37:41;;;;;;;131.10;119.38;;;10.40;99.90;;;;;;5034803;28;20232;-77
2023/10/23 08:40:08;;;;;;;124.73;113.83;;;10.40;99.90;;;;;;5033938;28;20166;-77
2023/10/23 08:42:34;;;;;;;133.70;121.70;;;10.40;99.90;;;;;;5033846;28;20181;-77
2023/10/23 08:45:00;;;;;;;119.87;108.37;;;10.40;99.90;;;;;;5034165;28;20192;-77
2023/10/23 08:47:26;;;;;;;118.80;107.45;;;10.40;99.90;;;;;;5033786;28;20169;-77
2023/10/23 08:49:53;;;;;;;126.87;115.00;;;10.50;99.90;;;;;;5033708;28;20513;-77
2023/10/23 08:52:21;;;;;;;126.95;116.30;;;10.50;99.90;;;;;;5033764;28;20193;-77
2023/10/23 08:54:49;;;;;;;128.93;117.28;;;10.50;99.90;;;;;;5033948;28;20657;-77
2023/10/23 08:57:16;;;;;;;139.38;127.88;;;10.60;99.90;;;;;;5033906;28;20162;-77
2023/10/23 08:59:42;;;;;;;124.88;113.93;;;10.60;99.90;;;;;;5034206;28;20514;-77
2023/10/23 09:02:08;;;;;;;144.50;132.13;;;10.60;99.90;;;;;;5033519;28;20241;-77
2023/10/23 09:04:37;;;;;;;132.98;121.60;;;10.70;99.90;;;;;;5033787;28;20188;-77
2023/10/23 09:07:03;;;;;;;118.70;107.55;;;10.60;99.90;;;;;;5033474;28;20162;-77
2023/10/23 09:09:30;;;;;;;121.77;109.90;;;10.70;99.90;;;;;;5033764;28;20710;-77
2023/10/23 09:11:56;;;;;;;111.28;100.63;;;10.70;99.90;;;;;;5033316;28;20686;-77
2023/10/23 09:14:31;;;;;;;111.67;101.10;;;10.70;99.90;;;;;;5033319;28;20204;-77
2023/10/23 09:16:57;;;;;;;114.88;104.50;;;10.80;99.90;;;;;;5033397;28;20200;-77
2023/10/23 09:19:36;;;;;;;135.10;123.70;;;10.90;99.90;;;;;;5033605;28;20166;-77
2023/10/23 09:22:03;;;;;;;124.03;112.80;;;11.00;99.90;;;;;;5033488;28;20578;-77
2023/10/23 09:24:32;;;;;;;133.35;121.82;;;11.00;99.90;;;;;;5033280;28;20200;-77
2023/10/23 09:26:58;;;;;;;126.95;115.63;;;11.10;99.90;;;;;;5033226;28;20536;-77
2023/10/23 09:29:25;;;;;;;126.53;115.53;;;11.10;99.90;;;;;;5033163;28;20170;-77
2023/10/23 09:31:55;;;;;;;132.70;121.53;;;11.20;99.90;;;;;;5033336;28;20445;-77
2023/10/23 09:34:21;;;;;;;120.30;110.10;;;11.30;99.90;;;;;;5033068;28;20216;-77
2023/10/23 09:36:50;;;;;;;112.63;102.25;;;11.50;99.90;;;;;;5033138;28;20170;-77
2023/10/23 09:39:16;;;;;;;98.97;89.43;;;11.50;99.90;;;;;;5034211;28;20620;-77
2023/10/23 09:41:45;;;;;;;102.32;92.90;;;11.50;99.90;;;;;;5033364;28;20516;-77
2023/10/23 09:44:13;;;;;;;108.32;98.50;;;11.60;99.90;;;;;;5033249;28;20269;-77
2023/10/23 09:46:39;;;;;;;118.05;107.55;;;11.60;99.90;;;;;;5033003;28;20162;-77
2023/10/23 09:49:06;;;;;;;108.07;98.38;;;11.70;99.90;;;;;;5032968;28;20166;-77
2023/10/23 09:51:39;;;;;;;109.57;99.88;;;11.80;99.90;;;;;;5032974;28;20197;-77
2023/10/23 09:54:17;;;;;;;98.65;89.15;;;11.80;99.90;;;;;;5033522;28;20578;-77
2023/10/23 09:56:52;;;;;;;100.57;90.93;;;11.90;99.90;;;;;;5033256;28;20153;-77
2023/10/23 09:59:25;;;;;;;103.78;94.18;;;12.00;99.90;;;;;;5034184;28;20176;-77
2023/10/23 10:01:53;;;;;;;109.57;99.32;;;12.00;99.90;;;;;;5037279;28;20204;-77
2023/10/23 10:04:24;;;;;;;119.38;109.03;;;12.00;99.90;;;;;;5036916;28;20709;-77
2023/10/23 10:06:54;;;;;;;107.47;97.63;;;12.00;99.90;;;;;;5037143;28;20169;-77
2023/10/23 10:09:22;;;;;;;118.72;108.35;;;11.90;99.90;;;;;;5037018;28;20177;-77
2023/10/23 10:11:49;;;;;;;116.80;106.30;;;11.90;99.90;;;;;;5037259;28;20220;-77
2023/10/23 10:14:17;;;;;;;123.00;112.53;;;12.00;99.90;;;;;;5036664;28;20272;-77
2023/10/23 10:16:44;;;;;;;104.53;95.03;;;12.00;99.90;;;;;;5036664;28;20162;-77
2023/10/23 10:19:12;;;;;;;101.25;92.18;;;12.00;99.90;;;;;;5036795;28;20166;-77
2023/10/23 10:22:17;;;;;;;101.35;91.90;;;12.10;99.90;;;;;;5036879;28;20527;-77
2023/10/23 10:24:44;;;;;;;100.07;90.95;;;12.30;99.90;;;;;;5034896;28;20182;-77
2023/10/23 10:27:10;;;;;;;99.80;90.22;;;12.50;99.90;;;;;;5036441;28;20168;-77
2023/10/23 10:29:36;;;;;;;78.35;70.00;;;12.70;99.90;;;;;;5036408;28;20166;-77
2023/10/23 10:32:11;;;;;;;87.00;78.70;;;12.70;99.90;;;;;;5018489;28;20193;-77
2023/10/23 10:34:46;;;;;;;93.75;84.35;;;12.70;99.90;;;;;;5019589;28;20142;-77
2023/10/23 10:37:12;;;;;;;94.28;85.50;;;12.70;99.90;;;;;;5036336;28;20154;-77
2023/10/23 10:39:48;;;;;;;95.60;86.50;;;12.80;99.90;;;;;;5036277;28;20169;-77
2023/10/23 10:42:16;;;;;;;88.15;79.53;;;12.80;99.90;;;;;;5036110;28;20169;-77
2023/10/23 10:45:09;;;;;;;88.55;79.93;;;12.70;99.90;;;;;;5036343;28;20181;-77
2023/10/23 10:47:52;;;;;;;88.15;79.85;;;12.80;99.90;;;;;;5036135;28;20511;-77
2023/10/23 10:50:38;;;;;;;82.05;73.78;;;12.80;99.90;;;;;;5036307;28;20265;-77
2023/10/23 10:53:06;;;;;;;93.63;84.78;;;12.90;99.90;;;;;;5035825;28;20205;-77
2023/10/23 10:55:33;;;;;;;94.53;85.90;;;13.00;99.90;;;;;;5036031;28;20188;-77
2023/10/23 10:58:02;;;;;;;87.38;78.95;;;13.00;99.90;;;;;;5036153;28;20392;-77
2023/10/23 11:00:38;;;;;;;92.78;84.20;;;13.00;99.90;;;;;;5035866;28;20170;-77
2023/10/23 11:03:04;;;;;;;83.65;74.85;;;13.10;99.90;;;;;;5036134;28;20235;-77
2023/10/23 11:05:32;;;;;;;77.07;69.30;;;13.10;99.90;;;;;;5035792;28;20208;-77
2023/10/23 11:07:58;;;;;;;83.33;74.83;;;13.10;99.90;;;;;;5035711;28;20170;-77
2023/10/23 11:10:23;;;;;;;76.93;69.33;;;13.20;99.90;;;;;;5035409;28;20522;-77
2023/10/23 11:12:52;;;;;;;66.53;58.73;;;13.30;99.90;;;;;;5035577;28;20272;-77
2023/10/23 11:15:18;;;;;;;64.43;50.05;;;13.40;99.90;;;;;;5035850;28;20173;-77
2023/10/23 11:17:44;;;;;;;65.40;52.27;;;13.40;99.90;;;;;;5036137;28;20526;-77
2023/10/23 11:20:12;;;;;;;64.80;53.67;;;13.50;99.90;;;;;;5035570;28;20221;-77
2023/10/23 11:22:41;;;;;;;62.63;45.87;;;13.60;99.90;;;;;;5035595;28;21002;-77
2023/10/23 11:25:09;;;;;;;64.67;54.20;;;13.60;99.90;;;;;;5035395;28;20459;-77
2023/10/23 11:27:36;;;;;;;65.07;53.50;;;13.50;99.90;;;;;;5035992;28;20450;-77
2023/10/23 11:30:03;;;;;;;61.30;46.27;;;13.50;99.90;;;;;;5035221;28;21046;-77
2023/10/23 11:32:29;;;;;;;68.40;60.60;;;13.50;99.90;;;;;;5035231;28;20418;-77
2023/10/23 11:35:04;;;;;;;70.73;63.13;;;13.60;99.90;;;;;;5035219;28;20385;-77
2023/10/23 11:37:37;;;;;;;64.60;48.73;;;13.60;99.90;;;;;;5035152;28;20909;-77
2023/10/23 11:40:07;;;;;;;66.70;46.03;;;13.70;99.90;;;;;;5035139;28;20384;-77
2023/10/23 11:42:53;;;;;;;62.13;50.47;;;13.70;99.90;;;;;;5035108;28;20498;-77
2023/10/23 11:45:19;;;;;;;59.33;43.30;;;13.60;99.90;;;;;;5035387;28;20376;-77
2023/10/23 11:47:46;;;;;;;62.30;42.70;;;13.60;99.90;;;;;;5035631;28;20397;-77
2023/10/23 11:50:12;;;;;;;64.93;49.73;;;13.60;99.90;;;;;;5035280;28;20463;-77
2023/10/23 11:52:46;;;;;;;64.45;49.42;;;13.70;99.90;;;;;;5034828;28;20450;-77
2023/10/23 11:55:16;;;;;;;64.17;45.70;;;13.80;99.90;;;;;;5017586;28;20162;-77
2023/10/23 11:57:50;;;;;;;58.47;42.10;;;13.70;99.90;;;;;;5034802;28;20409;-77
2023/10/23 12:00:17;;;;;;;59.37;45.13;;;13.80;99.90;;;;;;5035109;28;20435;-77
2023/10/23 12:02:45;;;;;;;59.70;47.30;;;13.80;99.90;;;;;;5034793;28;20431;-77
2023/10/23 12:05:19;;;;;;;63.03;50.67;;;13.90;99.90;;;;;;5034700;28;20415;-77
2023/10/23 12:07:47;;;;;;;61.90;48.07;;;13.80;99.90;;;;;;5034930;28;20389;-77
2023/10/23 12:10:13;;;;;;;61.47;52.60;;;13.80;99.90;;;;;;5034507;28;20484;-77
2023/10/23 12:12:43;;;;;;;62.07;51.70;;;13.80;99.90;;;;;;5034660;28;20425;-77
2023/10/23 12:15:10;;;;;;;63.23;48.10;;;13.80;99.90;;;;;;5016707;28;20475;-77
2023/10/23 12:17:37;;;;;;;63.07;51.97;;;13.80;99.90;;;;;;5034685;28;20787;-77
2023/10/23 12:20:09;;;;;;;61.13;49.20;;;13.90;99.90;;;;;;5034409;28;20447;-77
2023/10/23 12:22:46;;;;;;;60.67;50.90;;;13.90;99.90;;;;;;5033594;28;20416;-77
2023/10/23 12:25:13;;;;;;;60.80;44.87;;;14.10;99.90;;;;;;5034298;28;20813;-77
2023/10/23 12:27:39;;;;;;;59.13;45.33;;;14.20;99.90;;;;;;5034732;28;20954;-77